Time;durP1;ratioP1;P1;durP2;ratioP2;P2;SDS_P1;SDS_P2;PMS_P1;PMS_P2;Temp;Humidity;BMP_temperature;BMP_pressure;BME280_temperature;BME280_humidity;BME280_pressure;Samples;Min_cycle;Max_cycle;Signal;HPM_P1;HPM_P2
2022/02/16 00:00:19;;;;;;;;;;;;;;;10.25;62.80;99811.22;4414380;32;35268;-79
2022/02/16 00:02:46;;;;;;;;;;;;;;;10.06;63.28;99800.59;4420854;32;32758;-79
2022/02/16 00:05:15;;;;;;;;;;;;;;;10.34;62.62;99802.41;4428721;32;32099;-79
2022/02/16 00:07:43;;;;;;;;;;;;;;;10.32;62.59;99803.50;4426676;32;35823;-78
2022/02/16 00:10:13;;;;;;;;;;;;;;;10.44;62.30;99794.38;4413731;32;33695;-78
2022/02/16 00:12:41;;;;;;;;;;;;;;;10.27;62.98;99790.66;4414228;32;32970;-78
2022/02/16 00:15:09;;;;;;;;;;;;;;;10.23;63.14;99794.59;4421342;32;33040;-80
2022/02/16 00:17:37;;;;;;;;;;;;;;;10.28;63.00;99779.03;4413303;32;35656;-79
2022/02/16 00:20:05;;;;;;;;;;;;;;;10.56;61.47;99786.09;4414643;32;34586;-79
2022/02/16 00:22:32;;;;;;;;;;;;;;;10.26;62.24;99796.09;4404220;32;32563;-77
2022/02/16 00:25:00;;;;;;;;;;;;;;;9.74;64.66;99797.34;4413042;32;33297;-79
2022/02/16 00:27:28;;;;;;;;;;;;;;;9.60;65.58;99792.44;4417128;32;34780;-80
2022/02/16 00:29:55;;;;;;;;;;;;;;;9.97;64.26;99788.13;4408396;32;35301;-80
2022/02/16 00:32:24;;;;;;;;;;;;;;;9.91;64.52;99791.34;4418452;32;34112;-79
2022/02/16 00:34:51;;;;;;;;;;;;;;;9.98;64.29;99783.62;4429054;32;33325;-79
2022/02/16 00:37:19;;;;;;;;;;;;;;;10.16;63.77;99792.63;4427826;32;35175;-79
2022/02/16 00:39:46;;;;;;;;;;;;;;;10.00;64.30;99793.16;4413130;32;34844;-79
2022/02/16 00:42:13;;;;;;;;;;;;;;;10.14;63.92;99791.91;4416160;32;33328;-79
2022/02/16 00:44:41;;;;;;;;;;;;;;;10.15;63.93;99788.28;4424315;32;34835;-79
2022/02/16 00:47:09;;;;;;;;;;;;;;;10.11;64.08;99782.41;4422741;32;35720;-79
2022/02/16 00:49:36;;;;;;;;;;;;;;;10.28;63.47;99770.22;4414663;32;35047;-78
2022/02/16 00:52:04;;;;;;;;;;;;;;;9.86;64.98;99764.37;4412213;32;32885;-79
2022/02/16 00:54:33;;;;;;;;;;;;;;;9.98;64.75;99762.38;4435731;32;34867;-80
2022/02/16 00:57:01;;;;;;;;;;;;;;;10.18;63.92;99751.63;4437309;32;34916;-80
2022/02/16 00:59:29;;;;;;;;;;;;;;;10.08;64.30;99749.94;4427310;32;35234;-79
2022/02/16 01:01:56;;;;;;;;;;;;;;;10.01;64.45;99748.81;4428974;32;34515;-80
2022/02/16 01:04:24;;;;;;;;;;;;;;;9.92;64.87;99734.56;4410444;32;33068;-79
2022/02/16 01:06:52;;;;;;;;;;;;;;;10.00;64.47;99726.72;4435053;32;35548;-78
2022/02/16 01:09:20;;;;;;;;;;;;;;;10.09;63.96;99727.72;4415778;32;34757;-79
2022/02/16 01:11:48;;;;;;;;;;;;;;;10.46;62.43;99739.25;4416241;32;34078;-78
2022/02/16 01:14:15;;;;;;;;;;;;;;;10.22;62.88;99730.91;4417347;32;33744;-78
2022/02/16 01:16:43;;;;;;;;;;;;;;;10.00;63.80;99747.16;4423102;32;35424;-78
2022/02/16 01:19:11;;;;;;;;;;;;;;;10.03;63.93;99747.72;4434330;32;33179;-79
2022/02/16 01:21:38;;;;;;;;;;;;;;;10.12;63.72;99741.53;4410022;32;32372;-78
2022/02/16 01:24:07;;;;;;;;;;;;;;;10.12;63.81;99730.91;4419076;32;34538;-78
2022/02/16 01:26:35;;;;;;;;;;;;;;;10.20;63.58;99732.88;4416381;32;34786;-78
2022/02/16 01:29:03;;;;;;;;;;;;;;;10.11;63.89;99723.09;4444113;32;35276;-79
2022/02/16 01:31:32;;;;;;;;;;;;;;;9.91;64.35;99718.78;4426607;32;32868;-79
2022/02/16 01:34:00;;;;;;;;;;;;;;;9.90;64.32;99725.06;4439046;32;33174;-79
2022/02/16 01:36:28;;;;;;;;;;;;;;;9.47;65.83;99722.00;4416440;32;35692;-79
2022/02/16 01:38:56;;;;;;;;;;;;;;;9.34;66.52;99719.59;4415107;32;34119;-78
2022/02/16 01:41:23;;;;;;;;;;;;;;;9.00;67.83;99723.59;4429753;32;33452;-78
2022/02/16 01:43:52;;;;;;;;;;;;;;;9.09;67.55;99728.06;4428015;32;34744;-78
2022/02/16 01:46:20;;;;;;;;;;;;;;;9.33;67.03;99727.69;4403251;32;35142;-79
2022/02/16 01:48:48;;;;;;;;;;;;;;;8.97;67.97;99738.97;4416551;32;34770;-79
2022/02/16 01:51:15;;;;;;;;;;;;;;;9.03;68.02;99741.06;4429599;32;34009;-77
2022/02/16 01:53:46;;;;;;;;;;;;;;;8.88;68.21;99735.28;4417730;32;32182;-78
2022/02/16 01:56:13;;;;;;;;;;;;;;;9.31;66.92;99735.81;4429463;32;34571;-78
2022/02/16 01:58:41;;;;;;;;;;;;;;;8.89;68.19;99722.88;4413566;32;32988;-79
2022/02/16 02:01:11;;;;;;;;;;;;;;;9.23;67.16;99719.75;4411544;32;34281;-78
2022/02/16 02:03:39;;;;;;;;;;;;;;;9.52;66.07;99723.25;4436610;32;34858;-78
2022/02/16 02:06:07;;;;;;;;;;;;;;;9.50;66.01;99714.59;4431163;32;35206;-79
2022/02/16 02:08:34;;;;;;;;;;;;;;;9.66;65.47;99717.50;4441499;32;33925;-78
2022/02/16 02:11:02;;;;;;;;;;;;;;;9.78;65.11;99719.06;4429795;32;34150;-79
2022/02/16 02:13:33;;;;;;;;;;;;;;;9.75;65.08;99710.53;4409270;32;33359;-78
2022/02/16 02:16:02;;;;;;;;;;;;;;;9.88;64.70;99705.75;4423765;32;35538;-78
2022/02/16 02:18:30;;;;;;;;;;;;;;;9.88;64.67;99711.06;4411075;32;35384;-78
2022/02/16 02:20:58;;;;;;;;;;;;;;;9.87;64.61;99710.25;4404409;32;33142;-78
2022/02/16 02:23:25;;;;;;;;;;;;;;;9.84;64.69;99707.84;4405446;32;32876;-78
2022/02/16 02:25:56;;;;;;;;;;;;;;;9.51;65.56;99707.44;4415554;32;36015;-79
2022/02/16 02:28:25;;;;;;;;;;;;;;;9.83;64.67;99708.84;4419244;32;34106;-78
2022/02/16 02:30:54;;;;;;;;;;;;;;;9.91;64.47;99703.66;4442383;32;33967;-78
2022/02/16 02:33:23;;;;;;;;;;;;;;;9.93;64.44;99706.19;4423993;32;34790;-79
2022/02/16 02:35:52;;;;;;;;;;;;;;;9.58;65.57;99706.78;4423787;32;35444;-79
2022/02/16 02:38:19;;;;;;;;;;;;;;;9.70;65.20;99702.97;4417100;32;34490;-79
2022/02/16 02:40:57;;;;;;;;;;;;;;;9.73;65.11;99702.69;4427833;32;33082;-79
2022/02/16 02:43:25;;;;;;;;;;;;;;;9.45;66.01;99703.53;4419598;32;33645;-78
2022/02/16 02:45:53;;;;;;;;;;;;;;;9.74;64.84;99703.53;4436770;32;35293;-78
2022/02/16 02:48:25;;;;;;;;;;;;;;;9.63;64.98;99709.84;4425334;32;34721;-78
2022/02/16 02:50:55;;;;;;;;;;;;;;;9.74;64.79;99715.00;4443848;32;33972;-78
2022/02/16 02:53:24;;;;;;;;;;;;;;;9.87;64.43;99712.91;4438109;32;33539;-78
2022/02/16 02:55:56;;;;;;;;;;;;;;;9.83;64.45;99706.19;4427500;32;36053;-79
2022/02/16 02:58:25;;;;;;;;;;;;;;;9.88;64.27;99705.75;4428058;32;34454;-77
2022/02/16 03:00:53;;;;;;;;;;;;;;;9.96;64.08;99713.84;4427982;32;32394;-79
2022/02/16 03:03:22;;;;;;;;;;;;;;;10.01;63.98;99708.97;4421586;32;33888;-78
2022/02/16 03:05:49;;;;;;;;;;;;;;;10.01;63.94;99709.78;4414217;32;35872;-78
2022/02/16 03:08:16;;;;;;;;;;;;;;;9.98;64.06;99718.06;4415996;32;34414;-78
2022/02/16 03:10:44;;;;;;;;;;;;;;;10.08;63.66;99712.75;4405149;32;32934;-78
2022/02/16 03:13:21;;;;;;;;;;;;;;;10.03;63.61;99704.37;4409949;32;32407;-79
2022/02/16 03:15:51;;;;;;;;;;;;;;;9.95;63.97;99702.41;4428703;32;35618;-79
2022/02/16 03:18:20;;;;;;;;;;;;;;;10.03;63.71;99701.72;4421843;32;32855;-79
2022/02/16 03:20:48;;;;;;;;;;;;;;;10.19;63.02;99705.44;4418852;32;32678;-79
2022/02/16 03:23:16;;;;;;;;;;;;;;;9.99;63.78;99705.59;4431507;32;34562;-78
2022/02/16 03:25:44;;;;;;;;;;;;;;;10.02;63.70;99700.00;4432230;32;34741;-79
2022/02/16 03:28:30;;;;;;;;;;;;;;;10.11;63.51;99712.47;4428377;32;35073;-79
2022/02/16 03:30:58;;;;;;;;;;;;;;;10.03;63.66;99710.50;4414583;32;32602;-78
2022/02/16 03:33:31;;;;;;;;;;;;;;;10.03;63.75;99707.84;4435872;32;33627;-79
2022/02/16 03:35:59;;;;;;;;;;;;;;;10.16;63.38;99702.22;4427137;32;35985;-78
2022/02/16 03:38:26;;;;;;;;;;;;;;;9.94;63.98;99710.50;4410072;32;35093;-78
2022/02/16 03:40:54;;;;;;;;;;;;;;;10.01;63.79;99704.47;4414209;32;33117;-78
2022/02/16 03:43:21;;;;;;;;;;;;;;;9.89;64.22;99707.44;4416992;32;34198;-78
2022/02/16 03:45:49;;;;;;;;;;;;;;;9.92;64.04;99707.97;4414370;32;36089;-78
2022/02/16 03:48:17;;;;;;;;;;;;;;;9.90;64.14;99709.13;4425829;32;34124;-78
2022/02/16 03:50:44;;;;;;;;;;;;;;;9.86;64.30;99700.59;4428886;32;33254;-78
2022/02/16 03:53:12;;;;;;;;;;;;;;;9.73;64.46;99705.34;4407105;32;34713;-79
2022/02/16 03:55:43;;;;;;;;;;;;;;;9.69;64.61;99711.94;4428620;32;35147;-79
2022/02/16 03:58:11;;;;;;;;;;;;;;;9.59;64.94;99719.06;4424232;32;35022;-78
2022/02/16 04:00:39;;;;;;;;;;;;;;;9.57;65.28;99717.53;4425872;32;33113;-78
2022/02/16 04:03:07;;;;;;;;;;;;;;;9.65;64.90;99726.47;4427019;32;34529;-78
2022/02/16 04:05:35;;;;;;;;;;;;;;;9.52;65.37;99727.72;4429971;32;34733;-77
2022/02/16 04:08:02;;;;;;;;;;;;;;;9.64;64.97;99724.78;4424440;32;34553;-79
2022/02/16 04:10:31;;;;;;;;;;;;;;;9.58;65.15;99725.38;4432718;32;32331;-78
2022/02/16 04:12:58;;;;;;;;;;;;;;;9.70;64.81;99726.87;4432474;32;33749;-79
2022/02/16 04:15:25;;;;;;;;;;;;;;;9.58;65.31;99733.34;4411287;32;36646;-78
2022/02/16 04:17:53;;;;;;;;;;;;;;;9.67;65.02;99735.16;4420495;32;34417;-78
2022/02/16 04:20:21;;;;;;;;;;;;;;;9.60;65.24;99731.38;4419367;32;33344;-78
2022/02/16 04:22:50;;;;;;;;;;;;;;;9.33;66.10;99733.00;4419187;32;34152;-79
2022/02/16 04:25:18;;;;;;;;;;;;;;;9.22;66.38;99730.47;4430620;32;35296;-78
2022/02/16 04:27:46;;;;;;;;;;;;;;;8.87;67.37;99736.28;4407761;32;32566;-78
2022/02/16 04:30:13;;;;;;;;;;;;;;;8.75;68.45;99733.84;4419478;32;33479;-78
2022/02/16 04:32:44;;;;;;;;;;;;;;;8.57;69.08;99736.31;4440047;32;33754;-78
2022/02/16 04:35:11;;;;;;;;;;;;;;;8.95;67.98;99730.28;4423741;32;35157;-79
2022/02/16 04:37:39;;;;;;;;;;;;;;;8.80;68.28;99721.03;4425490;32;35398;-78
2022/02/16 04:40:08;;;;;;;;;;;;;;;8.68;68.37;99732.69;4429118;32;33354;-79
2022/02/16 04:42:36;;;;;;;;;;;;;;;8.85;68.36;99732.06;4425586;32;34198;-78
2022/02/16 04:45:04;;;;;;;;;;;;;;;8.80;68.62;99735.13;4423009;32;36215;-78
2022/02/16 04:47:35;;;;;;;;;;;;;;;8.88;68.19;99735.28;4423347;32;34664;-78
2022/02/16 04:50:03;;;;;;;;;;;;;;;9.03;67.80;99736.59;4420130;32;33056;-79
2022/02/16 04:52:37;;;;;;;;;;;;;;;8.71;68.77;99745.72;4422921;32;33774;-79
2022/02/16 04:55:06;;;;;;;;;;;;;;;8.48;69.42;99742.41;4425514;32;34706;-79
2022/02/16 04:57:34;;;;;;;;;;;;;;;8.73;69.04;99738.47;4419925;32;34319;-78
2022/02/16 05:00:05;;;;;;;;;;;;;;;8.83;68.67;99740.19;4421949;32;33507;-79
2022/02/16 05:02:35;;;;;;;;;;;;;;;8.77;68.68;99739.84;4425215;32;33762;-79
2022/02/16 05:05:03;;;;;;;;;;;;;;;8.85;68.60;99746.19;4426036;32;36532;-78
2022/02/16 05:07:30;;;;;;;;;;;;;;;8.58;69.50;99750.37;4437958;32;34288;-78
2022/02/16 05:09:58;;;;;;;;;;;;;;;8.76;68.58;99735.53;4444382;32;32924;-78
2022/02/16 05:12:26;;;;;;;;;;;;;;;8.89;68.29;99736.97;4444405;32;34221;-78
2022/02/16 05:14:54;;;;;;;;;;;;;;;9.06;67.75;99735.47;4433686;32;35280;-78
2022/02/16 05:17:22;;;;;;;;;;;;;;;9.00;67.91;99738.69;4430604;32;34740;-78
2022/02/16 05:19:55;;;;;;;;;;;;;;;9.09;67.43;99736.03;4412861;32;34195;-79
2022/02/16 05:22:23;;;;;;;;;;;;;;;9.36;66.74;99727.44;4396151;32;32236;-77
2022/02/16 05:24:55;;;;;;;;;;;;;;;9.53;66.20;99724.09;4430041;32;36053;-77
2022/02/16 05:27:23;;;;;;;;;;;;;;;9.30;66.88;99722.69;4407831;32;34484;-77
2022/02/16 05:29:50;;;;;;;;;;;;;;;9.32;67.02;99718.91;4424964;32;33890;-78
2022/02/16 05:32:17;;;;;;;;;;;;;;;9.26;66.91;99722.09;4428554;32;34142;-77
2022/02/16 05:34:46;;;;;;;;;;;;;;;9.40;66.61;99724.38;4429723;32;34447;-76
2022/02/16 05:37:14;;;;;;;;;;;;;;;9.33;66.96;99731.22;4434239;32;34474;-78
2022/02/16 05:39:41;;;;;;;;;;;;;;;9.61;66.03;99738.34;4404257;32;31493;-77
2022/02/16 05:42:09;;;;;;;;;;;;;;;9.60;65.85;99734.03;4418606;32;32379;-77
2022/02/16 05:44:37;;;;;;;;;;;;;;;9.73;65.43;99736.41;4414483;32;34292;-77
2022/02/16 05:47:04;;;;;;;;;;;;;;;9.60;65.66;99743.78;4423033;32;35110;-77
2022/02/16 05:49:32;;;;;;;;;;;;;;;9.75;64.94;99745.88;4424822;32;33907;-78
2022/02/16 05:52:00;;;;;;;;;;;;;;;9.81;64.61;99752.47;4402483;32;32664;-77
2022/02/16 05:54:27;;;;;;;;;;;;;;;9.63;65.02;99746.19;4405739;32;35310;-78
2022/02/16 05:56:55;;;;;;;;;;;;;;;9.74;64.55;99743.38;4432147;32;34101;-77
2022/02/16 05:59:22;;;;;;;;;;;;;;;9.73;64.29;99745.19;4407931;32;31644;-78
2022/02/16 06:01:50;;;;;;;;;;;;;;;9.63;64.45;99744.34;4422954;32;33720;-77
2022/02/16 06:04:23;;;;;;;;;;;;;;;9.90;63.72;99752.47;4431660;32;35415;-78
2022/02/16 06:06:54;;;;;;;;;;;;;;;9.85;63.80;99748.56;4420540;32;34453;-77
2022/02/16 06:09:29;;;;;;;;;;;;;;;9.80;63.82;99746.31;4430965;32;33259;-77
2022/02/16 06:12:03;;;;;;;;;;;;;;;9.68;63.99;99747.44;4416193;32;33606;-77
2022/02/16 06:14:34;;;;;;;;;;;;;;;9.88;63.50;99748.25;4415578;32;34498;-77
2022/02/16 06:17:05;;;;;;;;;;;;;;;9.75;63.64;99748.53;4424060;32;33827;-77
2022/02/16 06:19:38;;;;;;;;;;;;;;;9.77;63.54;99749.28;4444180;32;32502;-77
2022/02/16 06:22:08;;;;;;;;;;;;;;;9.63;63.96;99760.28;4414236;32;33338;-77
2022/02/16 06:24:41;;;;;;;;;;;;;;;9.61;64.17;99748.97;4430912;32;34467;-77
2022/02/16 06:27:14;;;;;;;;;;;;;;;9.35;65.26;99755.78;4415058;32;35142;-77
2022/02/16 06:29:48;;;;;;;;;;;;;;;9.32;65.39;99755.22;4437758;32;33067;-76
2022/02/16 06:32:17;;;;;;;;;;;;;;;9.38;65.17;99747.53;4436513;32;34135;-77
2022/02/16 06:34:45;;;;;;;;;;;;;;;9.29;65.48;99766.13;4436171;32;34809;-77
2022/02/16 06:37:17;;;;;;;;;;;;;;;9.49;64.80;99760.72;4283993;32;3912207;-77
2022/02/16 06:39:51;;;;;;;;;;;;;;;9.30;65.54;99768.66;4416082;32;20005;-77
2022/02/16 06:42:22;;;;;;;;;;;;;;;8.93;66.41;99772.03;4423183;32;34686;-78
2022/02/16 06:44:53;;;;;;;;;;;;;;;9.11;65.93;99773.94;4421760;32;34612;-77
2022/02/16 06:47:21;;;;;;;;;;;;;;;9.52;64.82;99778.16;4424640;32;33947;-77
2022/02/16 06:49:52;;;;;;;;;;;;;;;9.50;64.89;99774.81;4429068;32;33744;-78
2022/02/16 06:52:27;;;;;;;;;;;;;;;9.23;65.43;99777.28;4426520;32;33897;-77
2022/02/16 06:54:56;;;;;;;;;;;;;;;9.00;66.40;99774.00;4406595;32;37096;-77
2022/02/16 06:57:29;;;;;;;;;;;;;;;9.22;65.58;99776.47;4426644;32;35132;-77
2022/02/16 07:00:01;;;;;;;;;;;;;;;9.40;65.07;99779.28;4433792;32;33374;-77
2022/02/16 07:02:32;;;;;;;;;;;;;;;9.48;65.01;99784.75;4425469;32;33521;-77
2022/02/16 07:05:01;;;;;;;;;;;;;;;9.33;65.76;99772.81;4424784;32;35669;-77
2022/02/16 07:07:30;;;;;;;;;;;;;;;9.34;65.48;99772.69;4411785;32;33072;-76
2022/02/16 07:10:03;;;;;;;;;;;;;;;9.45;64.82;99771.75;4404674;32;33241;-78
2022/02/16 07:12:41;;;;;;;;;;;;;;;9.63;64.16;99776.22;4427262;32;33947;-77
2022/02/16 07:15:13;;;;;;;;;;;;;;;9.35;65.39;99771.72;4405993;32;33608;-77
2022/02/16 07:17:46;;;;;;;;;;;;;;;8.93;66.69;99778.19;4424225;32;35095;-77
2022/02/16 07:20:15;;;;;;;;;;;;;;;9.11;66.12;99771.28;4423254;32;33496;-77
2022/02/16 07:22:43;;;;;;;;;;;;;;;9.12;66.57;99774.75;4433170;32;33855;-78
2022/02/16 07:25:11;;;;;;;;;;;;;;;8.80;67.26;99768.78;4421015;32;33536;-76
2022/02/16 07:27:59;;;;;;;;;;;;;;;9.20;65.98;99772.25;4431235;32;34154;-77
2022/02/16 07:30:27;;;;;;;;;;;;;;;9.20;65.86;99778.41;4433470;32;32872;-77
2022/02/16 07:32:54;;;;;;;;;;;;;;;9.37;65.06;99771.59;4389442;32;35247;-77
2022/02/16 07:35:26;;;;;;;;;;;;;;;9.51;64.57;99777.34;4392321;32;34616;-77
2022/02/16 07:37:58;;;;;;;;;;;;;;;9.72;63.77;99778.06;4417873;32;33796;-77
2022/02/16 07:40:28;;;;;;;;;;;;;;;9.78;63.50;99782.81;4417661;32;32934;-77
2022/02/16 07:42:59;;;;;;;;;;;;;;;9.73;64.00;99776.25;4418177;32;34151;-78
2022/02/16 07:45:35;;;;;;;;;;;;;;;9.85;63.95;99781.28;4403625;32;35861;-77
2022/02/16 07:48:10;;;;;;;;;;;;;;;9.38;64.72;99782.06;4403378;32;32872;-77
2022/02/16 07:50:41;;;;;;;;;;;;;;;9.55;64.60;99783.22;4429044;32;32316;-77
2022/02/16 07:53:17;;;;;;;;;;;;;;;10.22;62.50;99787.59;4417108;32;33486;-77
2022/02/16 07:55:47;;;;;;;;;;;;;;;9.97;63.69;99788.13;4420323;32;34671;-77
2022/02/16 07:58:15;;;;;;;;;;;;;;;9.91;63.54;99794.00;4430347;32;36003;-77
2022/02/16 08:00:43;;;;;;;;;;;;;;;9.76;63.52;99795.41;4415636;32;34051;-77
2022/02/16 08:03:15;;;;;;;;;;;;;;;9.56;64.64;99793.69;4404752;32;33942;-76
2022/02/16 08:05:47;;;;;;;;;;;;;;;9.53;64.65;99793.16;4418191;32;34127;-77
2022/02/16 08:08:16;;;;;;;;;;;;;;;9.61;64.00;99793.28;4433594;32;34805;-77
2022/02/16 08:10:50;;;;;;;;;;;;;;;9.83;63.69;99787.72;4415548;32;32255;-76
2022/02/16 08:13:18;;;;;;;;;;;;;;;9.84;64.21;99784.06;4403010;32;33375;-77
2022/02/16 08:15:51;;;;;;;;;;;;;;;9.62;64.79;99793.16;4429605;32;35353;-77
2022/02/16 08:18:19;;;;;;;;;;;;;;;9.45;65.00;99796.47;4417639;32;34178;-77
2022/02/16 08:20:48;;;;;;;;;;;;;;;9.59;64.07;99809.38;4404839;32;33419;-76
2022/02/16 08:23:15;;;;;;;;;;;;;;;9.48;64.58;99811.31;4405248;32;33648;-76
2022/02/16 08:25:47;;;;;;;;;;;;;;;9.53;64.65;99809.91;4432836;32;36918;-77
2022/02/16 08:28:20;;;;;;;;;;;;;;;9.56;64.38;99811.47;4418643;32;33937;-77
2022/02/16 08:30:52;;;;;;;;;;;;;;;9.70;64.30;99806.59;4416324;32;31528;-76
2022/02/16 08:33:22;;;;;;;;;;;;;;;9.52;65.11;99804.72;4416347;32;34969;-77
2022/02/16 08:35:53;;;;;;;;;;;;;;;9.64;64.09;99796.50;4420896;32;34610;-77
2022/02/16 08:38:24;;;;;;;;;;;;;;;9.67;63.71;99806.88;4415884;32;34615;-77
2022/02/16 08:40:55;;;;;;;;;;;;;;;9.09;64.84;99802.37;4403826;32;34365;-77
2022/02/16 08:43:29;;;;;;;;;;;;;;;9.61;63.88;99803.91;4416153;32;33952;-77
2022/02/16 08:46:02;;;;;;;;;;;;;;;9.66;63.28;99802.50;4415144;32;36363;-77
2022/02/16 08:48:30;;;;;;;;;;;;;;;9.71;63.86;99802.09;4413731;32;35045;-77
2022/02/16 08:51:04;;;;;;;;;;;;;;;9.79;63.91;99804.91;4418743;32;32812;-77
2022/02/16 08:53:35;;;;;;;;;;;;;;;9.17;64.96;99813.16;4423976;32;32464;-76
2022/02/16 08:56:03;;;;;;;;;;;;;;;8.82;66.53;99812.75;4427797;32;36139;-77
2022/02/16 08:58:33;;;;;;;;;;;;;;;9.01;65.86;99804.03;4418424;32;34654;-77
2022/02/16 09:01:03;;;;;;;;;;;;;;;9.25;65.20;99796.59;4417667;32;34245;-77
2022/02/16 09:03:33;;;;;;;;;;;;;;;9.18;65.00;99798.09;4421774;32;34833;-76
2022/02/16 09:06:01;;;;;;;;;;;;;;;9.27;65.04;99787.50;4428977;32;35753;-77
2022/02/16 09:08:29;;;;;;;;;;;;;;;9.68;63.90;99789.09;4407612;32;35387;-77
2022/02/16 09:11:02;;;;;;;;;;;;;;;9.64;64.56;99780.56;4413244;32;32651;-77
2022/02/16 09:13:32;;;;;;;;;;;;;;;9.79;64.83;99783.66;4414523;32;33607;-77
2022/02/16 09:15:59;;;;;;;;;;;;;;;10.23;63.39;99773.31;4420522;32;35449;-77
2022/02/16 09:18:27;;;;;;;;;;;;;;;10.33;63.08;99778.59;4421061;32;32890;-78
2022/02/16 09:21:00;;;;;;;;;;;;;;;10.29;62.77;99777.22;4414244;32;33717;-77
2022/02/16 09:23:27;;;;;;;;;;;;;;;10.21;62.59;99777.91;4416302;32;34000;-76
2022/02/16 09:25:55;;;;;;;;;;;;;;;10.29;62.07;99778.03;4426351;32;35860;-77
2022/02/16 09:28:22;;;;;;;;;;;;;;;10.20;63.05;99780.72;4424355;32;34696;-77
2022/02/16 09:30:51;;;;;;;;;;;;;;;10.15;62.88;99778.50;4416634;32;34185;-78
2022/02/16 09:33:22;;;;;;;;;;;;;;;10.05;63.81;99777.69;4415756;32;33901;-77
2022/02/16 09:35:55;;;;;;;;;;;;;;;10.20;63.74;99781.56;4412913;32;33570;-76
2022/02/16 09:38:23;;;;;;;;;;;;;;;10.14;63.02;99782.13;4414001;32;35678;-76
2022/02/16 09:40:53;;;;;;;;;;;;;;;10.01;63.58;99783.38;4414384;32;33503;-78
2022/02/16 09:43:23;;;;;;;;;;;;;;;10.31;62.61;99783.22;4418913;32;33254;-77
2022/02/16 09:45:53;;;;;;;;;;;;;;;10.44;62.36;99784.59;4416804;32;34774;-77
2022/02/16 09:48:21;;;;;;;;;;;;;;;10.35;62.80;99781.94;4407396;32;34049;-77
2022/02/16 09:50:49;;;;;;;;;;;;;;;10.54;62.58;99774.78;4418936;32;33060;-77
2022/02/16 09:53:28;;;;;;;;;;;;;;;10.92;60.90;99777.28;4424529;32;34167;-77
2022/02/16 09:56:03;;;;;;;;;;;;;;;10.88;61.99;99767.94;4429209;32;35214;-77
2022/02/16 09:58:34;;;;;;;;;;;;;;;10.92;61.25;99769.31;4416758;32;33525;-77
2022/02/16 10:01:06;;;;;;;;;;;;;;;11.45;60.04;99759.63;4429393;32;31177;-76
2022/02/16 10:03:34;;;;;;;;;;;;;;;11.26;58.61;99757.09;4410385;32;32897;-77
2022/02/16 10:06:08;;;;;;;;;;;;;;;11.59;59.00;99751.97;4416840;32;35693;-77
2022/02/16 10:08:43;;;;;;;;;;;;;;;11.33;58.69;99752.81;4428473;32;34513;-77
2022/02/16 10:11:11;;;;;;;;;;;;;;;11.85;57.30;99744.91;4436479;32;32879;-78
2022/02/16 10:13:39;;;;;;;;;;;;;;;11.70;57.05;99741.09;4411323;32;33543;-77
2022/02/16 10:16:06;;;;;;;;;;;;;;;12.08;55.11;99748.75;4415132;32;33562;-77
2022/02/16 10:18:33;;;;;;;;;;;;;;;11.79;56.15;99747.31;4411030;32;33041;-78
2022/02/16 10:21:05;;;;;;;;;;;;;;;12.30;55.51;99744.75;4415970;32;33224;-77
2022/02/16 10:23:38;;;;;;;;;;;;;;;12.14;56.16;99741.94;4435319;32;33590;-78
2022/02/16 10:26:06;;;;;;;;;;;;;;;12.27;53.19;99734.41;4422745;32;35641;-78
2022/02/16 10:28:38;;;;;;;;;;;;;;;12.64;53.61;99724.25;4409187;32;33660;-78
2022/02/16 10:31:09;;;;;;;;;;;;;;;12.98;53.94;99719.78;4419950;32;33823;-77
2022/02/16 10:33:36;;;;;;;;;;;;;;;13.04;52.55;99722.62;4437251;32;34797;-77
2022/02/16 10:36:18;;;;;;;;;;;;;;;12.97;52.97;99720.78;4436316;32;36034;-77
2022/02/16 10:39:06;;;;;;;;;;;;;;;12.76;53.67;99715.00;4419384;32;35512;-77
2022/02/16 10:41:41;;;;;;;;;;;;;;;12.48;53.21;99713.50;4431255;32;33255;-77
2022/02/16 10:44:33;;;;;;;;;;;;;;;12.77;52.85;99697.97;4410529;32;32856;-78
2022/02/16 10:47:03;;;;;;;;;;;;;;;12.90;52.51;99693.00;4422082;32;36405;-77
2022/02/16 10:49:31;;;;;;;;;;;;;;;12.92;51.96;99689.19;4412241;32;33852;-76
2022/02/16 10:52:10;;;;;;;;;;;;;;;13.12;51.44;99682.59;4434696;32;33574;-78
2022/02/16 10:54:38;;;;;;;;;;;;;;;12.78;52.26;99680.97;4403983;32;31806;-78
2022/02/16 10:57:09;;;;;;;;;;;;;;;13.58;49.37;99675.84;4426182;32;35217;-78
2022/02/16 10:59:36;;;;;;;;;;;;;;;13.85;49.54;99667.47;4425139;32;33624;-77
2022/02/16 11:02:04;;;;;;;;;;;;;;;13.13;49.16;99668.25;4436400;32;33239;-78
2022/02/16 11:04:32;;;;;;;;;;;;;;;13.54;49.76;99659.31;4434676;32;35226;-79
2022/02/16 11:07:00;;;;;;;;;;;;;;;13.92;48.53;99653.28;4425335;32;34904;-77
2022/02/16 11:09:29;;;;;;;;;;;;;;;13.86;47.45;99653.13;4420238;32;35582;-78
2022/02/16 11:11:57;;;;;;;;;;;;;;;13.24;48.43;99648.41;4420705;32;33653;-78
2022/02/16 11:14:28;;;;;;;;;;;;;;;13.73;46.97;99639.41;4431127;32;34031;-78
2022/02/16 11:16:56;;;;;;;;;;;;;;;13.56;47.31;99640.41;4416743;32;35276;-76
2022/02/16 11:19:27;;;;;;;;;;;;;;;14.04;46.98;99627.84;4421128;32;33830;-78
2022/02/16 11:21:57;;;;;;;;;;;;;;;14.38;47.39;99625.78;4435161;32;32683;-78
2022/02/16 11:24:29;;;;;;;;;;;;;;;14.28;46.53;99629.66;4445717;32;33410;-78
2022/02/16 11:26:56;;;;;;;;;;;;;;;14.62;46.96;99631.03;4421390;32;34951;-77
2022/02/16 11:29:26;;;;;;;;;;;;;;;14.54;46.63;99625.72;4421674;32;34666;-78
2022/02/16 11:32:15;;;;;;;;;;;;;;;14.81;45.80;99631.47;4431094;32;34190;-79
2022/02/16 11:34:42;;;;;;;;;;;;;;;14.58;46.93;99622.53;4421573;32;34832;-78
2022/02/16 11:37:10;;;;;;;;;;;;;;;14.36;46.58;99630.50;4416275;32;36100;-80
2022/02/16 11:39:50;;;;;;;;;;;;;;;14.55;45.40;99625.56;4421714;32;35219;-77
2022/02/16 11:42:22;;;;;;;;;;;;;;;14.66;44.57;99632.38;4418577;32;33993;-78
2022/02/16 11:44:50;;;;;;;;;;;;;;;14.32;45.26;99621.13;4425313;32;33335;-80
2022/02/16 11:47:35;;;;;;;;;;;;;;;14.57;45.63;99623.53;4416843;32;34811;-78
2022/02/16 11:50:13;;;;;;;;;;;;;;;14.24;44.20;99615.78;4419410;32;32913;-79
2022/02/16 11:52:41;;;;;;;;;;;;;;;14.32;45.14;99615.78;4433320;32;33045;-78
2022/02/16 11:55:27;;;;;;;;;;;;;;;14.20;44.56;99614.47;4426884;32;33900;-78
2022/02/16 11:58:12;;;;;;;;;;;;;;;14.43;44.30;99609.22;4416815;32;35270;-80
2022/02/16 12:00:42;;;;;;;;;;;;;;;14.70;42.56;99597.06;4430373;32;34770;-78
2022/02/16 12:03:12;;;;;;;;;;;;;;;14.71;45.22;99603.22;4442853;32;33647;-79
2022/02/16 12:05:47;;;;;;;;;;;;;;;15.04;42.77;99588.66;4438533;32;33647;-80
2022/02/16 12:08:16;;;;;;;;;;;;;;;14.93;42.45;99600.59;4438836;32;35335;-79
2022/02/16 12:10:54;;;;;;;;;;;;;;;14.95;41.81;99587.84;4415741;32;34481;-79
2022/02/16 12:13:27;;;;;;;;;;;;;;;15.05;41.54;99585.78;4418587;32;32350;-79
2022/02/16 12:16:14;;;;;;;;;;;;;;;15.10;40.98;99579.88;4430139;32;33811;-78
2022/02/16 12:18:44;;;;;;;;;;;;;;;14.72;41.38;99565.56;4437225;32;35005;-79
2022/02/16 12:21:11;;;;;;;;;;;;;;;15.29;39.77;99561.50;4438907;32;34679;-79
2022/02/16 12:23:45;;;;;;;;;;;;;;;15.14;39.93;99559.78;4405100;32;33463;-78
2022/02/16 12:26:15;;;;;;;;;;;;;;;15.35;39.20;99551.94;4405382;32;34043;-79
2022/02/16 12:28:45;;;;;;;;;;;;;;;15.52;39.77;99553.47;4407574;32;34948;-79
2022/02/16 12:31:13;;;;;;;;;;;;;;;15.37;37.57;99553.41;4430478;32;35289;-79
2022/02/16 12:33:51;;;;;;;;;;;;;;;15.68;35.94;99546.09;4430463;32;32841;-79
2022/02/16 12:36:20;;;;;;;;;;;;;;;15.79;37.08;99542.94;4416364;32;34672;-79
2022/02/16 12:38:48;;;;;;;;;;;;;;;15.57;37.65;99541.16;4429996;32;34956;-78
2022/02/16 12:41:16;;;;;;;;;;;;;;;15.60;37.64;99539.97;4429466;32;33227;-78
2022/02/16 12:43:49;;;;;;;;;;;;;;;15.39;36.47;99537.97;4442801;32;33703;-79
2022/02/16 12:46:16;;;;;;;;;;;;;;;15.67;35.02;99520.28;4426471;32;33538;-78
2022/02/16 12:48:45;;;;;;;;;;;;;;;15.78;36.42;99521.69;4417861;32;36005;-79
2022/02/16 12:51:24;;;;;;;;;;;;;;;16.09;36.67;99520.50;4420961;32;34421;-79
2022/02/16 12:53:52;;;;;;;;;;;;;;;16.02;37.29;99516.91;4427031;32;32871;-79
2022/02/16 12:56:20;;;;;;;;;;;;;;;15.96;37.70;99511.44;4422065;32;33530;-78
2022/02/16 12:58:48;;;;;;;;;;;;;;;15.62;37.61;99503.09;4435510;32;34993;-78
2022/02/16 13:01:15;;;;;;;;;;;;;;;15.71;38.08;99500.16;4422305;32;34435;-78
2022/02/16 13:03:47;;;;;;;;;;;;;;;15.30;38.70;99498.87;4402705;32;32477;-78
2022/02/16 13:06:14;;;;;;;;;;;;;;;15.31;38.85;99497.84;4420991;32;34316;-78